Consulta les dades en temps real de l'estació meteorològica de Mataró
| Hora UTC | 01:55 |
|---|---|
| Temperatura | 23.4 ºC |
| Sòl 15 cm | 22.4 ºC |
| Humitat | 77.4 % |
| Pressió | 1019.9 hPa |
| Pluja | 0.0 mm |
| Velocitat vent | 11.2 km/h |
| Direcció vent | NNW |
| Radiació solar | 0.1 W/m² |
| Temperatura (ºC) | Humitat (%) | Pressió (hPa) | Velocitat vent (km/h) | Precipitació (mm) | Radiació solar (W/m²) | ||||||||||||||
|---|---|---|---|---|---|---|---|---|---|---|---|---|---|---|---|---|---|---|---|
| Hora UTC | Aire | Sòl 15 cm | Humitat | Pressió | Vel. | Dir. | Vel. Max | Dir. | Intent. màx 5 min. | Rad. Sol. | |||||||||
| 00:05 | 23.0 | 21.6 | 77.4 | 1020.2 | 7.1 | NNW | 7.1 | NNW | 0.0 | 0.1 | |||||||||
| 00:10 | 22.9 | 21.6 | 77.6 | 1020.2 | 5.8 | NW | 8.1 | NW | 0.0 | 0.1 | |||||||||
| 00:15 | 22.9 | 21.5 | 78.0 | 1020.2 | 6.5 | NNW | 8.5 | NW | 0.0 | 0.1 | |||||||||
| 00:20 | 22.9 | 21.5 | 77.8 | 1020.2 | 7.0 | NNW | 8.5 | NNW | 0.0 | 0.1 | |||||||||
| 00:25 | 22.9 | 21.5 | 78.1 | 1020.2 | 7.7 | NNW | 8.8 | NNW | 0.0 | 0.1 | |||||||||
| 00:30 | 23.1 | 21.6 | 77.7 | 1020.1 | 7.8 | NNW | 9.9 | NNW | 0.0 | 0.1 | |||||||||
| 00:35 | 23.1 | 21.7 | 77.2 | 1020.2 | 7.1 | NNW | 8.8 | NW | 0.0 | 0.1 | |||||||||
| 00:40 | 23.1 | 21.8 | 77.3 | 1020.2 | 7.5 | NNW | 9.5 | NNW | 0.0 | 0.1 | |||||||||
| 00:45 | 23.1 | 21.9 | 77.7 | 1020.2 | 8.1 | NNW | 10.6 | NNW | 0.0 | 0.1 | |||||||||
| 00:50 | 23.1 | 21.9 | 77.6 | 1020.1 | 7.0 | NW | 10.6 | NW | 0.0 | 0.1 | |||||||||
| 00:55 | 23.1 | 21.9 | 78.0 | 1020.1 | 4.4 | NW | 7.1 | WNW | 0.0 | 0.1 | |||||||||
| 01:00 | 23.0 | 21.8 | 78.0 | 1020.1 | 5.5 | NNW | 8.5 | NNW | 0.0 | 0.1 | |||||||||
| 01:05 | 22.9 | 21.6 | 78.2 | 1020.1 | 6.2 | NW | 7.8 | WNW | 0.0 | 0.1 | |||||||||
| 01:10 | 22.9 | 21.5 | 77.7 | 1020.1 | 5.6 | NW | 8.1 | NW | 0.0 | 0.1 | |||||||||
| 01:15 | 22.9 | 21.4 | 76.9 | 1020.1 | 7.0 | NNW | 9.2 | NW | 0.0 | 0.1 | |||||||||
| 01:20 | 22.8 | 21.4 | 76.4 | 1020.0 | 7.9 | NW | 10.6 | NNW | 0.0 | 0.1 | |||||||||
| 01:25 | 23.0 | 21.5 | 76.3 | 1020.0 | 10.1 | NNW | 12.4 | NNW | 0.0 | 0.1 | |||||||||
| 01:30 | 23.2 | 21.7 | 75.7 | 1020.0 | 9.2 | NNW | 12.0 | NNW | 0.0 | 0.1 | |||||||||
| 01:35 | 23.3 | 21.9 | 75.2 | 1020.0 | 8.5 | NNW | 12.7 | NNW | 0.0 | 0.1 | |||||||||
| 01:40 | 23.4 | 22.1 | 75.2 | 1020.0 | 10.1 | NNW | 12.7 | NNW | 0.0 | 0.1 | |||||||||
| 01:45 | 23.4 | 22.2 | 76.0 | 1020.0 | 9.6 | NNW | 15.2 | NW | 0.0 | 0.1 | |||||||||
| 01:50 | 23.4 | 22.3 | 77.0 | 1019.9 | 10.8 | NNW | 14.1 | NNW | 0.0 | 0.1 | |||||||||
| 01:55 | 23.4 | 22.4 | 77.4 | 1019.9 | 11.2 | NNW | 16.2 | NNW | 0.0 | 0.1 | |||||||||
| Màxima | 23.4 | 22.4 | 78.2 | 1020.2 | 11.2 | NNW | 16.2 | NNW | 0.0 | 0.1 | |||||||||
| Mínima | 20 | 20 | 75.2 | 1019.9 | |||||||||||||||
| Total | 0.0 | ||||||||||||||||||